Sioux City, Iowa
Current Conditions -  °F | °C
As of 8:52 PM on Saturday 20 Dec 2014 (Local Time) from KSUX Reporting Station
Haze Haze  
Wind Chill: 23°   Ceiling: 400
Heat Index: 33°   Visibility: 3mi
Dew Point: 31°   Wind: 16mph
Humidity: 92%   Direction: 170°S
Pressure: 30.03"   Gusts: NA
Location:  42.5°N, 96.42°W
Report Text: KSUX 210252Z 17014KT 3SM BR OVC004 01/M01 A3003 RMK AO2 SLP182 T00061006 58009
Loading
Personal Weather Stations






























Interactive Weather Map New forecast layout! Learn more

10-Day Weather Forecast

Advertisements
Track Severe Weather on mobile